sensor_id;sensor_type;location;lat;lon;timestamp;P1;durP1;ratioP1;P2;durP2;ratioP2
15240;SDS011;7723;52.170;9.978;2023-06-22T00:01:24;9.63;;;8.25;;
15240;SDS011;7723;52.170;9.978;2023-06-22T00:03:51;13.55;;;9.43;;
15240;SDS011;7723;52.170;9.978;2023-06-22T00:06:18;9.45;;;8.38;;
15240;SDS011;7723;52.170;9.978;2023-06-22T00:08:45;10.30;;;8.45;;
15240;SDS011;7723;52.170;9.978;2023-06-22T00:11:12;12.13;;;9.90;;
15240;SDS011;7723;52.170;9.978;2023-06-22T00:13:40;11.60;;;8.82;;
15240;SDS011;7723;52.170;9.978;2023-06-22T00:16:07;9.98;;;8.10;;
15240;SDS011;7723;52.170;9.978;2023-06-22T00:18:35;9.60;;;8.20;;
15240;SDS011;7723;52.170;9.978;2023-06-22T00:21:02;9.60;;;8.55;;
15240;SDS011;7723;52.170;9.978;2023-06-22T00:23:29;11.48;;;9.25;;
15240;SDS011;7723;52.170;9.978;2023-06-22T00:25:59;9.70;;;8.55;;
15240;SDS011;7723;52.170;9.978;2023-06-22T00:28:26;10.52;;;9.43;;
15240;SDS011;7723;52.170;9.978;2023-06-22T00:30:54;10.32;;;8.95;;
15240;SDS011;7723;52.170;9.978;2023-06-22T00:33:21;9.85;;;8.43;;
15240;SDS011;7723;52.170;9.978;2023-06-22T00:35:49;10.88;;;9.13;;
15240;SDS011;7723;52.170;9.978;2023-06-22T00:38:17;11.63;;;8.88;;
15240;SDS011;7723;52.170;9.978;2023-06-22T00:40:45;10.38;;;8.95;;
15240;SDS011;7723;52.170;9.978;2023-06-22T00:43:12;10.93;;;9.68;;
15240;SDS011;7723;52.170;9.978;2023-06-22T00:45:39;10.73;;;8.35;;
15240;SDS011;7723;52.170;9.978;2023-06-22T00:48:06;11.63;;;8.55;;
15240;SDS011;7723;52.170;9.978;2023-06-22T00:50:34;9.48;;;7.95;;
15240;SDS011;7723;52.170;9.978;2023-06-22T00:53:05;10.07;;;9.05;;
15240;SDS011;7723;52.170;9.978;2023-06-22T00:55:34;9.95;;;8.10;;
15240;SDS011;7723;52.170;9.978;2023-06-22T00:58:04;12.50;;;8.85;;
15240;SDS011;7723;52.170;9.978;2023-06-22T01:00:33;12.50;;;9.30;;
15240;SDS011;7723;52.170;9.978;2023-06-22T01:03:01;10.32;;;8.68;;
15240;SDS011;7723;52.170;9.978;2023-06-22T01:05:28;14.38;;;9.95;;
15240;SDS011;7723;52.170;9.978;2023-06-22T01:08:05;10.80;;;8.77;;
15240;SDS011;7723;52.170;9.978;2023-06-22T01:10:39;13.38;;;8.75;;
15240;SDS011;7723;52.170;9.978;2023-06-22T01:13:11;11.20;;;9.13;;
15240;SDS011;7723;52.170;9.978;2023-06-22T01:15:48;9.65;;;8.65;;
15240;SDS011;7723;52.170;9.978;2023-06-22T01:18:19;10.10;;;8.52;;
15240;SDS011;7723;52.170;9.978;2023-06-22T01:20:51;10.25;;;8.68;;
15240;SDS011;7723;52.170;9.978;2023-06-22T01:23:25;10.00;;;8.30;;
15240;SDS011;7723;52.170;9.978;2023-06-22T01:25:57;13.23;;;10.07;;
15240;SDS011;7723;52.170;9.978;2023-06-22T01:28:39;12.77;;;10.23;;
15240;SDS011;7723;52.170;9.978;2023-06-22T01:31:10;12.38;;;10.07;;
15240;SDS011;7723;52.170;9.978;2023-06-22T01:33:41;13.35;;;10.23;;
15240;SDS011;7723;52.170;9.978;2023-06-22T01:36:09;11.65;;;9.68;;
15240;SDS011;7723;52.170;9.978;2023-06-22T01:38:37;11.95;;;10.02;;
15240;SDS011;7723;52.170;9.978;2023-06-22T01:41:05;14.43;;;10.32;;
15240;SDS011;7723;52.170;9.978;2023-06-22T01:43:32;14.35;;;9.82;;
15240;SDS011;7723;52.170;9.978;2023-06-22T01:46:02;11.75;;;9.65;;
15240;SDS011;7723;52.170;9.978;2023-06-22T01:48:29;11.82;;;9.73;;
15240;SDS011;7723;52.170;9.978;2023-06-22T01:50:57;12.02;;;9.57;;
15240;SDS011;7723;52.170;9.978;2023-06-22T01:53:25;12.30;;;9.75;;
15240;SDS011;7723;52.170;9.978;2023-06-22T01:55:52;10.77;;;9.15;;
15240;SDS011;7723;52.170;9.978;2023-06-22T01:58:19;11.32;;;10.07;;
15240;SDS011;7723;52.170;9.978;2023-06-22T02:00:51;16.42;;;10.43;;
15240;SDS011;7723;52.170;9.978;2023-06-22T02:03:26;12.75;;;10.40;;
15240;SDS011;7723;52.170;9.978;2023-06-22T02:05:57;14.25;;;11.38;;
15240;SDS011;7723;52.170;9.978;2023-06-22T02:08:29;14.57;;;10.57;;
15240;SDS011;7723;52.170;9.978;2023-06-22T02:11:01;18.02;;;12.00;;
15240;SDS011;7723;52.170;9.978;2023-06-22T02:13:29;17.45;;;11.20;;
15240;SDS011;7723;52.170;9.978;2023-06-22T02:15:58;15.02;;;10.25;;
15240;SDS011;7723;52.170;9.978;2023-06-22T02:18:28;12.70;;;10.35;;
15240;SDS011;7723;52.170;9.978;2023-06-22T02:20:55;14.77;;;10.40;;
15240;SDS011;7723;52.170;9.978;2023-06-22T02:23:22;12.20;;;10.25;;
15240;SDS011;7723;52.170;9.978;2023-06-22T02:25:49;13.57;;;10.77;;
15240;SDS011;7723;52.170;9.978;2023-06-22T02:28:16;14.25;;;10.23;;
15240;SDS011;7723;52.170;9.978;2023-06-22T02:30:43;13.75;;;10.77;;
15240;SDS011;7723;52.170;9.978;2023-06-22T02:33:10;15.00;;;11.30;;
15240;SDS011;7723;52.170;9.978;2023-06-22T02:35:38;13.85;;;10.63;;
15240;SDS011;7723;52.170;9.978;2023-06-22T02:38:10;12.73;;;10.35;;
15240;SDS011;7723;52.170;9.978;2023-06-22T02:40:37;14.98;;;11.07;;
15240;SDS011;7723;52.170;9.978;2023-06-22T02:43:04;14.45;;;10.60;;
15240;SDS011;7723;52.170;9.978;2023-06-22T02:45:31;13.93;;;10.75;;
15240;SDS011;7723;52.170;9.978;2023-06-22T02:47:58;13.73;;;11.27;;
15240;SDS011;7723;52.170;9.978;2023-06-22T02:50:26;13.93;;;10.93;;
15240;SDS011;7723;52.170;9.978;2023-06-22T02:52:55;15.90;;;10.27;;
15240;SDS011;7723;52.170;9.978;2023-06-22T02:55:23;18.40;;;11.68;;
15240;SDS011;7723;52.170;9.978;2023-06-22T02:57:50;13.68;;;10.35;;
15240;SDS011;7723;52.170;9.978;2023-06-22T03:00:17;13.25;;;10.32;;
15240;SDS011;7723;52.170;9.978;2023-06-22T03:02:45;14.15;;;10.95;;
15240;SDS011;7723;52.170;9.978;2023-06-22T03:05:13;14.75;;;10.77;;
15240;SDS011;7723;52.170;9.978;2023-06-22T03:07:43;14.05;;;10.65;;
15240;SDS011;7723;52.170;9.978;2023-06-22T03:10:13;18.83;;;11.82;;
15240;SDS011;7723;52.170;9.978;2023-06-22T03:12:40;12.32;;;10.73;;
15240;SDS011;7723;52.170;9.978;2023-06-22T03:15:09;15.40;;;11.98;;
15240;SDS011;7723;52.170;9.978;2023-06-22T03:17:37;13.23;;;10.80;;
15240;SDS011;7723;52.170;9.978;2023-06-22T03:20:06;14.75;;;11.43;;
15240;SDS011;7723;52.170;9.978;2023-06-22T03:22:36;14.15;;;11.75;;
15240;SDS011;7723;52.170;9.978;2023-06-22T03:25:03;12.85;;;10.25;;
15240;SDS011;7723;52.170;9.978;2023-06-22T03:27:36;13.50;;;9.50;;
15240;SDS011;7723;52.170;9.978;2023-06-22T03:30:04;12.68;;;9.77;;
15240;SDS011;7723;52.170;9.978;2023-06-22T03:32:31;16.33;;;11.10;;
15240;SDS011;7723;52.170;9.978;2023-06-22T03:34:59;17.15;;;11.77;;
15240;SDS011;7723;52.170;9.978;2023-06-22T03:37:26;18.52;;;10.60;;
15240;SDS011;7723;52.170;9.978;2023-06-22T03:39:53;17.70;;;9.80;;
15240;SDS011;7723;52.170;9.978;2023-06-22T03:42:20;15.35;;;10.25;;
15240;SDS011;7723;52.170;9.978;2023-06-22T03:44:49;18.55;;;10.88;;
15240;SDS011;7723;52.170;9.978;2023-06-22T03:47:16;14.02;;;11.00;;
15240;SDS011;7723;52.170;9.978;2023-06-22T03:49:43;14.23;;;10.90;;
15240;SDS011;7723;52.170;9.978;2023-06-22T03:52:10;22.95;;;12.05;;
15240;SDS011;7723;52.170;9.978;2023-06-22T03:54:37;14.05;;;10.77;;
15240;SDS011;7723;52.170;9.978;2023-06-22T03:57:05;14.68;;;11.43;;
15240;SDS011;7723;52.170;9.978;2023-06-22T03:59:32;16.70;;;10.88;;
15240;SDS011;7723;52.170;9.978;2023-06-22T04:02:00;16.60;;;10.93;;
15240;SDS011;7723;52.170;9.978;2023-06-22T04:04:27;15.80;;;10.45;;
15240;SDS011;7723;52.170;9.978;2023-06-22T04:06:55;13.45;;;10.52;;
15240;SDS011;7723;52.170;9.978;2023-06-22T04:09:22;21.45;;;12.48;;
15240;SDS011;7723;52.170;9.978;2023-06-22T04:11:49;12.82;;;10.45;;
15240;SDS011;7723;52.170;9.978;2023-06-22T04:14:16;13.90;;;10.95;;
15240;SDS011;7723;52.170;9.978;2023-06-22T04:16:43;15.50;;;11.25;;
15240;SDS011;7723;52.170;9.978;2023-06-22T04:19:11;15.57;;;12.00;;
15240;SDS011;7723;52.170;9.978;2023-06-22T04:21:41;15.30;;;12.18;;
15240;SDS011;7723;52.170;9.978;2023-06-22T04:24:09;15.93;;;11.90;;
15240;SDS011;7723;52.170;9.978;2023-06-22T04:26:36;18.45;;;11.48;;
15240;SDS011;7723;52.170;9.978;2023-06-22T04:29:03;15.10;;;11.60;;
15240;SDS011;7723;52.170;9.978;2023-06-22T04:31:31;16.27;;;12.55;;
15240;SDS011;7723;52.170;9.978;2023-06-22T04:34:02;15.02;;;11.73;;
15240;SDS011;7723;52.170;9.978;2023-06-22T04:36:34;14.48;;;11.05;;
15240;SDS011;7723;52.170;9.978;2023-06-22T04:39:07;18.52;;;11.93;;
15240;SDS011;7723;52.170;9.978;2023-06-22T04:41:35;17.05;;;12.57;;
15240;SDS011;7723;52.170;9.978;2023-06-22T04:44:08;16.70;;;12.70;;
15240;SDS011;7723;52.170;9.978;2023-06-22T04:46:36;15.10;;;11.13;;
15240;SDS011;7723;52.170;9.978;2023-06-22T04:49:05;15.70;;;10.98;;
15240;SDS011;7723;52.170;9.978;2023-06-22T04:51:40;13.05;;;11.15;;
15240;SDS011;7723;52.170;9.978;2023-06-22T04:54:08;16.60;;;11.75;;
15240;SDS011;7723;52.170;9.978;2023-06-22T04:56:36;15.15;;;12.38;;
15240;SDS011;7723;52.170;9.978;2023-06-22T04:59:05;14.93;;;11.65;;
15240;SDS011;7723;52.170;9.978;2023-06-22T05:01:33;18.15;;;12.27;;
15240;SDS011;7723;52.170;9.978;2023-06-22T05:04:01;15.63;;;11.48;;
15240;SDS011;7723;52.170;9.978;2023-06-22T05:06:30;17.38;;;11.52;;
15240;SDS011;7723;52.170;9.978;2023-06-22T05:08:58;13.98;;;11.23;;
15240;SDS011;7723;52.170;9.978;2023-06-22T05:11:26;15.60;;;11.70;;
15240;SDS011;7723;52.170;9.978;2023-06-22T05:13:53;17.55;;;10.57;;
15240;SDS011;7723;52.170;9.978;2023-06-22T05:16:21;14.15;;;11.32;;
15240;SDS011;7723;52.170;9.978;2023-06-22T05:18:50;16.05;;;11.45;;
15240;SDS011;7723;52.170;9.978;2023-06-22T05:21:20;12.73;;;9.82;;
15240;SDS011;7723;52.170;9.978;2023-06-22T05:23:48;14.80;;;10.68;;
15240;SDS011;7723;52.170;9.978;2023-06-22T05:26:17;16.45;;;11.10;;
15240;SDS011;7723;52.170;9.978;2023-06-22T05:28:44;15.88;;;11.77;;
15240;SDS011;7723;52.170;9.978;2023-06-22T05:31:12;14.38;;;11.23;;
15240;SDS011;7723;52.170;9.978;2023-06-22T05:33:40;16.10;;;11.25;;
15240;SDS011;7723;52.170;9.978;2023-06-22T05:36:07;14.10;;;10.52;;
15240;SDS011;7723;52.170;9.978;2023-06-22T05:38:35;14.35;;;10.45;;
15240;SDS011;7723;52.170;9.978;2023-06-22T05:41:02;14.10;;;11.38;;
15240;SDS011;7723;52.170;9.978;2023-06-22T05:43:31;14.38;;;10.82;;
15240;SDS011;7723;52.170;9.978;2023-06-22T05:45:59;15.63;;;10.50;;
15240;SDS011;7723;52.170;9.978;2023-06-22T05:48:27;14.85;;;9.75;;
15240;SDS011;7723;52.170;9.978;2023-06-22T05:50:54;15.75;;;10.50;;
15240;SDS011;7723;52.170;9.978;2023-06-22T05:53:21;15.30;;;11.95;;
15240;SDS011;7723;52.170;9.978;2023-06-22T05:55:48;15.80;;;10.80;;
15240;SDS011;7723;52.170;9.978;2023-06-22T05:58:16;14.82;;;10.60;;
15240;SDS011;7723;52.170;9.978;2023-06-22T06:00:44;23.42;;;10.75;;
15240;SDS011;7723;52.170;9.978;2023-06-22T06:03:12;20.15;;;11.32;;
15240;SDS011;7723;52.170;9.978;2023-06-22T06:05:42;19.95;;;10.35;;
15240;SDS011;7723;52.170;9.978;2023-06-22T06:08:10;23.30;;;10.70;;
15240;SDS011;7723;52.170;9.978;2023-06-22T06:10:37;22.38;;;10.75;;
15240;SDS011;7723;52.170;9.978;2023-06-22T06:13:04;14.10;;;10.20;;
15240;SDS011;7723;52.170;9.978;2023-06-22T06:15:32;20.80;;;10.70;;
15240;SDS011;7723;52.170;9.978;2023-06-22T06:18:02;14.73;;;10.82;;
15240;SDS011;7723;52.170;9.978;2023-06-22T06:20:31;15.10;;;10.50;;
15240;SDS011;7723;52.170;9.978;2023-06-22T06:22:59;12.25;;;10.45;;
15240;SDS011;7723;52.170;9.978;2023-06-22T06:25:26;14.23;;;10.18;;
15240;SDS011;7723;52.170;9.978;2023-06-22T06:27:54;13.60;;;10.02;;
15240;SDS011;7723;52.170;9.978;2023-06-22T06:30:21;13.15;;;10.55;;
15240;SDS011;7723;52.170;9.978;2023-06-22T06:32:49;16.83;;;10.77;;
15240;SDS011;7723;52.170;9.978;2023-06-22T06:35:18;16.08;;;10.43;;
15240;SDS011;7723;52.170;9.978;2023-06-22T06:37:45;14.85;;;10.75;;
15240;SDS011;7723;52.170;9.978;2023-06-22T06:40:14;13.65;;;10.75;;
15240;SDS011;7723;52.170;9.978;2023-06-22T06:42:43;15.32;;;10.68;;
15240;SDS011;7723;52.170;9.978;2023-06-22T06:45:11;12.15;;;10.85;;
15240;SDS011;7723;52.170;9.978;2023-06-22T06:47:39;15.32;;;10.25;;
15240;SDS011;7723;52.170;9.978;2023-06-22T06:50:06;14.00;;;10.32;;
15240;SDS011;7723;52.170;9.978;2023-06-22T06:52:36;14.00;;;10.63;;
15240;SDS011;7723;52.170;9.978;2023-06-22T06:55:03;13.48;;;10.20;;
15240;SDS011;7723;52.170;9.978;2023-06-22T06:57:33;21.08;;;10.38;;
15240;SDS011;7723;52.170;9.978;2023-06-22T07:00:00;15.38;;;10.98;;
15240;SDS011;7723;52.170;9.978;2023-06-22T07:02:30;15.57;;;10.25;;
15240;SDS011;7723;52.170;9.978;2023-06-22T07:04:57;14.70;;;10.73;;
15240;SDS011;7723;52.170;9.978;2023-06-22T07:07:24;11.95;;;10.68;;
15240;SDS011;7723;52.170;9.978;2023-06-22T07:09:53;15.13;;;10.23;;
15240;SDS011;7723;52.170;9.978;2023-06-22T07:12:20;11.65;;;9.55;;
15240;SDS011;7723;52.170;9.978;2023-06-22T07:14:47;11.88;;;9.93;;
15240;SDS011;7723;52.170;9.978;2023-06-22T07:17:15;12.38;;;10.00;;
15240;SDS011;7723;52.170;9.978;2023-06-22T07:19:42;11.73;;;9.43;;
15240;SDS011;7723;52.170;9.978;2023-06-22T07:22:09;11.73;;;9.55;;
15240;SDS011;7723;52.170;9.978;2023-06-22T07:24:36;12.70;;;9.82;;
15240;SDS011;7723;52.170;9.978;2023-06-22T07:27:05;11.05;;;9.38;;
15240;SDS011;7723;52.170;9.978;2023-06-22T07:29:32;11.02;;;8.95;;
15240;SDS011;7723;52.170;9.978;2023-06-22T07:32:00;10.57;;;8.63;;
15240;SDS011;7723;52.170;9.978;2023-06-22T07:34:29;12.70;;;8.90;;
15240;SDS011;7723;52.170;9.978;2023-06-22T07:36:56;12.45;;;9.75;;
15240;SDS011;7723;52.170;9.978;2023-06-22T07:39:23;9.95;;;8.95;;
15240;SDS011;7723;52.170;9.978;2023-06-22T07:41:51;13.30;;;10.05;;
15240;SDS011;7723;52.170;9.978;2023-06-22T07:44:20;14.52;;;8.98;;
15240;SDS011;7723;52.170;9.978;2023-06-22T07:46:47;11.43;;;9.38;;
15240;SDS011;7723;52.170;9.978;2023-06-22T07:49:14;14.80;;;9.88;;
15240;SDS011;7723;52.170;9.978;2023-06-22T07:51:42;15.88;;;9.52;;
15240;SDS011;7723;52.170;9.978;2023-06-22T07:54:09;12.55;;;8.73;;
15240;SDS011;7723;52.170;9.978;2023-06-22T07:56:36;11.13;;;8.32;;
15240;SDS011;7723;52.170;9.978;2023-06-22T07:59:04;12.52;;;8.85;;
15240;SDS011;7723;52.170;9.978;2023-06-22T08:01:33;10.18;;;8.15;;
15240;SDS011;7723;52.170;9.978;2023-06-22T08:04:00;10.43;;;7.75;;
15240;SDS011;7723;52.170;9.978;2023-06-22T08:06:29;11.40;;;7.88;;
15240;SDS011;7723;52.170;9.978;2023-06-22T08:08:57;10.30;;;7.45;;
15240;SDS011;7723;52.170;9.978;2023-06-22T08:11:24;9.90;;;8.10;;
15240;SDS011;7723;52.170;9.978;2023-06-22T08:13:51;9.88;;;7.80;;
15240;SDS011;7723;52.170;9.978;2023-06-22T08:16:20;9.13;;;7.35;;
15240;SDS011;7723;52.170;9.978;2023-06-22T08:18:50;8.90;;;7.63;;
15240;SDS011;7723;52.170;9.978;2023-06-22T08:21:17;10.43;;;7.82;;
15240;SDS011;7723;52.170;9.978;2023-06-22T08:23:45;9.10;;;8.10;;
15240;SDS011;7723;52.170;9.978;2023-06-22T08:26:12;8.48;;;7.63;;
15240;SDS011;7723;52.170;9.978;2023-06-22T08:28:40;9.00;;;8.10;;
15240;SDS011;7723;52.170;9.978;2023-06-22T08:31:07;8.73;;;7.55;;
15240;SDS011;7723;52.170;9.978;2023-06-22T08:33:35;8.70;;;7.88;;
15240;SDS011;7723;52.170;9.978;2023-06-22T08:36:04;9.98;;;7.72;;
15240;SDS011;7723;52.170;9.978;2023-06-22T08:38:31;11.43;;;7.53;;
15240;SDS011;7723;52.170;9.978;2023-06-22T08:40:59;9.15;;;7.68;;
15240;SDS011;7723;52.170;9.978;2023-06-22T08:43:26;8.32;;;7.25;;
15240;SDS011;7723;52.170;9.978;2023-06-22T08:45:54;9.23;;;8.07;;
15240;SDS011;7723;52.170;9.978;2023-06-22T08:48:21;11.13;;;8.25;;
15240;SDS011;7723;52.170;9.978;2023-06-22T08:50:48;9.95;;;8.35;;
15240;SDS011;7723;52.170;9.978;2023-06-22T08:53:16;11.82;;;9.15;;
15240;SDS011;7723;52.170;9.978;2023-06-22T08:55:44;9.23;;;8.20;;
15240;SDS011;7723;52.170;9.978;2023-06-22T08:58:11;9.52;;;8.50;;
15240;SDS011;7723;52.170;9.978;2023-06-22T09:00:38;11.32;;;8.38;;
15240;SDS011;7723;52.170;9.978;2023-06-22T09:03:05;9.27;;;8.15;;
15240;SDS011;7723;52.170;9.978;2023-06-22T09:05:33;10.55;;;8.50;;
15240;SDS011;7723;52.170;9.978;2023-06-22T09:08:00;10.40;;;8.25;;
15240;SDS011;7723;52.170;9.978;2023-06-22T09:10:28;10.48;;;8.65;;
15240;SDS011;7723;52.170;9.978;2023-06-22T09:12:56;11.40;;;8.10;;
15240;SDS011;7723;52.170;9.978;2023-06-22T09:15:24;10.68;;;8.38;;
15240;SDS011;7723;52.170;9.978;2023-06-22T09:17:51;8.73;;;7.68;;
15240;SDS011;7723;52.170;9.978;2023-06-22T09:20:19;9.38;;;8.32;;
15240;SDS011;7723;52.170;9.978;2023-06-22T09:22:46;10.18;;;9.05;;
15240;SDS011;7723;52.170;9.978;2023-06-22T09:25:14;12.00;;;9.63;;
15240;SDS011;7723;52.170;9.978;2023-06-22T09:27:43;11.73;;;9.73;;
15240;SDS011;7723;52.170;9.978;2023-06-22T09:30:10;10.10;;;9.05;;
15240;SDS011;7723;52.170;9.978;2023-06-22T09:32:38;11.50;;;9.95;;
15240;SDS011;7723;52.170;9.978;2023-06-22T09:35:05;11.40;;;9.75;;
15240;SDS011;7723;52.170;9.978;2023-06-22T09:37:34;12.60;;;10.20;;
15240;SDS011;7723;52.170;9.978;2023-06-22T09:40:01;18.67;;;9.88;;
15240;SDS011;7723;52.170;9.978;2023-06-22T09:42:33;10.40;;;8.98;;
15240;SDS011;7723;52.170;9.978;2023-06-22T09:45:02;11.48;;;9.93;;
15240;SDS011;7723;52.170;9.978;2023-06-22T09:47:30;11.95;;;10.65;;
15240;SDS011;7723;52.170;9.978;2023-06-22T09:49:57;12.55;;;10.70;;
15240;SDS011;7723;52.170;9.978;2023-06-22T09:52:25;15.07;;;11.40;;
15240;SDS011;7723;52.170;9.978;2023-06-22T09:54:52;12.55;;;10.77;;
15240;SDS011;7723;52.170;9.978;2023-06-22T09:57:19;13.48;;;10.25;;
15240;SDS011;7723;52.170;9.978;2023-06-22T09:59:46;11.48;;;9.27;;
15240;SDS011;7723;52.170;9.978;2023-06-22T10:02:14;11.18;;;10.07;;
15240;SDS011;7723;52.170;9.978;2023-06-22T10:04:42;12.10;;;10.70;;
15240;SDS011;7723;52.170;9.978;2023-06-22T10:07:09;12.00;;;10.35;;
15240;SDS011;7723;52.170;9.978;2023-06-22T10:09:36;12.68;;;10.77;;
15240;SDS011;7723;52.170;9.978;2023-06-22T10:12:04;11.98;;;10.73;;
15240;SDS011;7723;52.170;9.978;2023-06-22T10:14:31;16.33;;;11.90;;
15240;SDS011;7723;52.170;9.978;2023-06-22T10:16:58;15.10;;;13.20;;
15240;SDS011;7723;52.170;9.978;2023-06-22T10:19:27;12.93;;;11.63;;
15240;SDS011;7723;52.170;9.978;2023-06-22T10:21:54;17.17;;;12.25;;
15240;SDS011;7723;52.170;9.978;2023-06-22T10:24:21;15.23;;;12.85;;
15240;SDS011;7723;52.170;9.978;2023-06-22T10:26:49;13.20;;;11.68;;
15240;SDS011;7723;52.170;9.978;2023-06-22T10:29:16;14.18;;;12.20;;
15240;SDS011;7723;52.170;9.978;2023-06-22T10:31:43;14.35;;;10.95;;
15240;SDS011;7723;52.170;9.978;2023-06-22T10:34:10;13.50;;;11.98;;
15240;SDS011;7723;52.170;9.978;2023-06-22T10:36:39;13.70;;;11.55;;
15240;SDS011;7723;52.170;9.978;2023-06-22T10:39:06;15.77;;;12.80;;
15240;SDS011;7723;52.170;9.978;2023-06-22T10:41:33;15.75;;;12.73;;
15240;SDS011;7723;52.170;9.978;2023-06-22T10:44:01;16.15;;;13.20;;
15240;SDS011;7723;52.170;9.978;2023-06-22T10:46:28;15.80;;;12.13;;
15240;SDS011;7723;52.170;9.978;2023-06-22T10:48:55;15.30;;;12.35;;
15240;SDS011;7723;52.170;9.978;2023-06-22T10:51:23;16.63;;;13.63;;
15240;SDS011;7723;52.170;9.978;2023-06-22T10:53:52;15.45;;;13.55;;
15240;SDS011;7723;52.170;9.978;2023-06-22T10:56:19;14.75;;;12.48;;
15240;SDS011;7723;52.170;9.978;2023-06-22T10:58:47;18.00;;;13.02;;
15240;SDS011;7723;52.170;9.978;2023-06-22T11:01:14;13.95;;;12.50;;
15240;SDS011;7723;52.170;9.978;2023-06-22T11:03:42;15.57;;;12.40;;
15240;SDS011;7723;52.170;9.978;2023-06-22T11:06:10;13.75;;;11.85;;
15240;SDS011;7723;52.170;9.978;2023-06-22T11:08:37;17.20;;;14.20;;
15240;SDS011;7723;52.170;9.978;2023-06-22T11:11:05;18.58;;;14.43;;
15240;SDS011;7723;52.170;9.978;2023-06-22T11:13:32;16.55;;;13.38;;
15240;SDS011;7723;52.170;9.978;2023-06-22T11:16:00;16.17;;;12.52;;
15240;SDS011;7723;52.170;9.978;2023-06-22T11:18:27;15.63;;;13.43;;
15240;SDS011;7723;52.170;9.978;2023-06-22T11:20:54;12.38;;;11.07;;
15240;SDS011;7723;52.170;9.978;2023-06-22T11:23:21;16.73;;;13.13;;
15240;SDS011;7723;52.170;9.978;2023-06-22T11:25:48;15.57;;;12.30;;
15240;SDS011;7723;52.170;9.978;2023-06-22T11:28:16;13.02;;;11.68;;
15240;SDS011;7723;52.170;9.978;2023-06-22T11:30:43;15.20;;;12.98;;
15240;SDS011;7723;52.170;9.978;2023-06-22T11:33:11;16.08;;;13.18;;
15240;SDS011;7723;52.170;9.978;2023-06-22T11:35:38;15.70;;;13.30;;
15240;SDS011;7723;52.170;9.978;2023-06-22T11:38:05;13.73;;;12.00;;
15240;SDS011;7723;52.170;9.978;2023-06-22T11:40:32;12.77;;;11.45;;
15240;SDS011;7723;52.170;9.978;2023-06-22T11:43:00;14.00;;;11.10;;
15240;SDS011;7723;52.170;9.978;2023-06-22T11:45:32;12.32;;;10.27;;
15240;SDS011;7723;52.170;9.978;2023-06-22T11:48:00;12.57;;;11.05;;
15240;SDS011;7723;52.170;9.978;2023-06-22T11:50:28;12.80;;;10.48;;
15240;SDS011;7723;52.170;9.978;2023-06-22T11:52:59;11.63;;;10.35;;
15240;SDS011;7723;52.170;9.978;2023-06-22T11:55:27;10.90;;;9.80;;
15240;SDS011;7723;52.170;9.978;2023-06-22T11:57:55;12.15;;;10.13;;
15240;SDS011;7723;52.170;9.978;2023-06-22T12:00:25;11.77;;;9.88;;
15240;SDS011;7723;52.170;9.978;2023-06-22T12:02:54;12.40;;;11.02;;
15240;SDS011;7723;52.170;9.978;2023-06-22T12:05:22;11.57;;;10.38;;
15240;SDS011;7723;52.170;9.978;2023-06-22T12:07:50;11.85;;;10.68;;
15240;SDS011;7723;52.170;9.978;2023-06-22T12:10:19;11.20;;;10.02;;
15240;SDS011;7723;52.170;9.978;2023-06-22T12:12:46;12.82;;;11.00;;
15240;SDS011;7723;52.170;9.978;2023-06-22T12:15:14;13.35;;;10.52;;
15240;SDS011;7723;52.170;9.978;2023-06-22T12:17:41;13.27;;;11.43;;
15240;SDS011;7723;52.170;9.978;2023-06-22T12:20:10;12.52;;;11.32;;
15240;SDS011;7723;52.170;9.978;2023-06-22T12:22:38;12.30;;;11.05;;
15240;SDS011;7723;52.170;9.978;2023-06-22T12:25:05;12.13;;;10.93;;
15240;SDS011;7723;52.170;9.978;2023-06-22T12:27:33;12.32;;;11.13;;
15240;SDS011;7723;52.170;9.978;2023-06-22T12:30:01;13.82;;;11.32;;
15240;SDS011;7723;52.170;9.978;2023-06-22T12:32:28;12.77;;;10.80;;
15240;SDS011;7723;52.170;9.978;2023-06-22T12:34:55;11.65;;;10.45;;
15240;SDS011;7723;52.170;9.978;2023-06-22T12:37:24;15.93;;;10.90;;
15240;SDS011;7723;52.170;9.978;2023-06-22T12:39:52;11.60;;;10.13;;
15240;SDS011;7723;52.170;9.978;2023-06-22T12:42:20;11.13;;;10.05;;
15240;SDS011;7723;52.170;9.978;2023-06-22T12:44:47;10.35;;;9.35;;
15240;SDS011;7723;52.170;9.978;2023-06-22T12:47:14;11.35;;;10.15;;
15240;SDS011;7723;52.170;9.978;2023-06-22T12:49:41;11.73;;;10.63;;
15240;SDS011;7723;52.170;9.978;2023-06-22T12:52:08;11.73;;;10.52;;
15240;SDS011;7723;52.170;9.978;2023-06-22T12:54:37;10.38;;;9.27;;
15240;SDS011;7723;52.170;9.978;2023-06-22T12:57:05;10.32;;;9.32;;
15240;SDS011;7723;52.170;9.978;2023-06-22T12:59:32;13.77;;;9.68;;
15240;SDS011;7723;52.170;9.978;2023-06-22T13:01:59;10.07;;;9.18;;
15240;SDS011;7723;52.170;9.978;2023-06-22T13:04:26;11.30;;;8.80;;
15240;SDS011;7723;52.170;9.978;2023-06-22T13:06:54;9.43;;;8.50;;
15240;SDS011;7723;52.170;9.978;2023-06-22T13:09:21;9.63;;;8.40;;
15240;SDS011;7723;52.170;9.978;2023-06-22T13:11:50;9.63;;;8.63;;
15240;SDS011;7723;52.170;9.978;2023-06-22T13:14:18;10.00;;;9.10;;
15240;SDS011;7723;52.170;9.978;2023-06-22T13:16:45;8.90;;;7.95;;
15240;SDS011;7723;52.170;9.978;2023-06-22T13:19:13;11.70;;;9.18;;
15240;SDS011;7723;52.170;9.978;2023-06-22T13:21:40;11.38;;;8.35;;
15240;SDS011;7723;52.170;9.978;2023-06-22T13:24:07;10.95;;;7.82;;
15240;SDS011;7723;52.170;9.978;2023-06-22T13:26:34;9.88;;;8.43;;
15240;SDS011;7723;52.170;9.978;2023-06-22T13:29:03;11.63;;;8.05;;
15240;SDS011;7723;52.170;9.978;2023-06-22T13:31:30;9.05;;;8.02;;
15240;SDS011;7723;52.170;9.978;2023-06-22T13:33:57;10.05;;;8.70;;
15240;SDS011;7723;52.170;9.978;2023-06-22T13:36:25;10.70;;;8.98;;
15240;SDS011;7723;52.170;9.978;2023-06-22T13:38:55;10.02;;;9.02;;
15240;SDS011;7723;52.170;9.978;2023-06-22T13:41:23;9.65;;;8.60;;
15240;SDS011;7723;52.170;9.978;2023-06-22T13:43:53;8.50;;;7.68;;
15240;SDS011;7723;52.170;9.978;2023-06-22T13:46:21;9.35;;;8.30;;
15240;SDS011;7723;52.170;9.978;2023-06-22T13:48:48;11.70;;;8.73;;
15240;SDS011;7723;52.170;9.978;2023-06-22T13:51:15;9.48;;;8.52;;
15240;SDS011;7723;52.170;9.978;2023-06-22T13:53:43;9.07;;;8.15;;
15240;SDS011;7723;52.170;9.978;2023-06-22T13:56:10;8.73;;;7.93;;
15240;SDS011;7723;52.170;9.978;2023-06-22T13:58:37;8.63;;;7.80;;
15240;SDS011;7723;52.170;9.978;2023-06-22T14:01:04;9.38;;;8.48;;
15240;SDS011;7723;52.170;9.978;2023-06-22T14:03:33;10.82;;;8.85;;
15240;SDS011;7723;52.170;9.978;2023-06-22T14:06:00;9.73;;;8.82;;
15240;SDS011;7723;52.170;9.978;2023-06-22T14:08:27;9.32;;;8.43;;
15240;SDS011;7723;52.170;9.978;2023-06-22T14:10:54;11.38;;;9.05;;
15240;SDS011;7723;52.170;9.978;2023-06-22T14:13:21;9.70;;;8.75;;
15240;SDS011;7723;52.170;9.978;2023-06-22T14:15:48;11.05;;;9.50;;
15240;SDS011;7723;52.170;9.978;2023-06-22T14:18:17;10.63;;;9.63;;
15240;SDS011;7723;52.170;9.978;2023-06-22T14:20:45;10.45;;;9.43;;
15240;SDS011;7723;52.170;9.978;2023-06-22T14:23:13;10.13;;;9.05;;
15240;SDS011;7723;52.170;9.978;2023-06-22T14:25:40;11.30;;;10.10;;
15240;SDS011;7723;52.170;9.978;2023-06-22T14:28:08;10.75;;;8.88;;
15240;SDS011;7723;52.170;9.978;2023-06-22T14:30:35;10.00;;;9.02;;
15240;SDS011;7723;52.170;9.978;2023-06-22T14:33:03;10.30;;;9.15;;
15240;SDS011;7723;52.170;9.978;2023-06-22T14:35:30;10.15;;;9.10;;
15240;SDS011;7723;52.170;9.978;2023-06-22T14:37:58;9.75;;;8.68;;
15240;SDS011;7723;52.170;9.978;2023-06-22T14:40:26;11.30;;;9.23;;
15240;SDS011;7723;52.170;9.978;2023-06-22T14:42:53;12.88;;;9.05;;
15240;SDS011;7723;52.170;9.978;2023-06-22T14:45:21;11.60;;;8.80;;
15240;SDS011;7723;52.170;9.978;2023-06-22T14:47:48;10.20;;;9.20;;